KHVE/HVE METAR and TAF weather

Enter ICAO airport designator
Station Type Date Time Source
KHVE METAR 2019/04/18 10:35 UTC NOAA

KHVE 181035Z AUTO 08003KT 10SM CLR 05/M02 A3024 RMK AO2


Station Type Date Time Source
KHVE Decoded METAR 2019/04/18 10:35 UTC NOAA

Station name not available
Apr 18, 2019 - 06:35 AM EDT / 2019.04.18 1035 UTC
Wind: from the E (080 degrees) at 3 MPH (3 KT):0
Visibility: 10 mile(s):0
Sky conditions: clear
Temperature: 41 F (5 C)
Dew Point: 28 F (-2 C)
Relative Humidity: 60%
Pressure (altimeter): 30.24 in. Hg (1024 hPa)
ob: KHVE 181035Z AUTO 08003KT 10SM CLR 05/M02 A3024 RMK AO2
cycle: 10

Station Type Date Time Source
KHVE TAF UTC NOAA

Error!

Example: see airport list